<?xml version="1.0" encoding="UTF-8" standalone="no" ?>
<gpx xmlns="http://www.topografix.com/GPX/1/1" xmlns:xsi="http://www.w3.org/2001/XMLSchema-instance" xsi:schemaLocation="http://www.topografix.com/GPX/1/1 http://www.topografix.com/GPX/1/1/gpx.xsd" version="1.1" creator="VisuGPX - https://www.visugpx.com">
  <metadata>
    <name>VacancesDricouZoe</name>
  </metadata>
  <trk>
    <name><![CDATA[Journal actif: 2021-07-01 17:32]]></name>
    <trkseg>
      <trkpt lat="44.65686" lon="-1.16898">
        <ele>18.88</ele>
        <time>2021-07-01T19:32:56Z</time>
      </trkpt>
      <trkpt lat="44.65691" lon="-1.16826">
        <ele>14.56</ele>
        <time>2021-07-01T19:33:11Z</time>
      </trkpt>
      <trkpt lat="44.65695" lon="-1.16821">
        <ele>14.08</ele>
        <time>2021-07-01T19:33:13Z</time>
      </trkpt>
      <trkpt lat="44.65699" lon="-1.16816">
        <ele>14.08</ele>
        <time>2021-07-01T19:33:14Z</time>
      </trkpt>
      <trkpt lat="44.65699" lon="-1.16816">
        <ele>13.6</ele>
        <time>2021-07-01T19:33:15Z</time>
      </trkpt>
      <trkpt lat="44.65702" lon="-1.16814">
        <ele>13.12</ele>
        <time>2021-07-01T19:33:16Z</time>
      </trkpt>
      <trkpt lat="44.65703" lon="-1.16813">
        <ele>13.12</ele>
        <time>2021-07-01T19:33:17Z</time>
      </trkpt>
      <trkpt lat="44.65719" lon="-1.16809">
        <ele>10.71</ele>
        <time>2021-07-01T19:33:24Z</time>
      </trkpt>
      <trkpt lat="44.65771" lon="-1.16815">
        <ele>3.98</ele>
        <time>2021-07-01T19:33:39Z</time>
      </trkpt>
      <trkpt lat="44.65818" lon="-1.1682">
        <ele>2.54</ele>
        <time>2021-07-01T19:33:53Z</time>
      </trkpt>
      <trkpt lat="44.65864" lon="-1.16824">
        <ele>4.46</ele>
        <time>2021-07-01T19:34:09Z</time>
      </trkpt>
      <trkpt lat="44.65893" lon="-1.16826">
        <ele>2.54</ele>
        <time>2021-07-01T19:34:22Z</time>
      </trkpt>
      <trkpt lat="44.65932" lon="-1.16829">
        <ele>1.58</ele>
        <time>2021-07-01T19:34:39Z</time>
      </trkpt>
      <trkpt lat="44.65961" lon="-1.16832">
        <ele>2.54</ele>
        <time>2021-07-01T19:34:54Z</time>
      </trkpt>
      <trkpt lat="44.65984" lon="-1.16834">
        <ele>4.46</ele>
        <time>2021-07-01T19:35:06Z</time>
      </trkpt>
      <trkpt lat="44.66002" lon="-1.16835">
        <ele>4.94</ele>
        <time>2021-07-01T19:35:18Z</time>
      </trkpt>
      <trkpt lat="44.66011" lon="-1.16829">
        <ele>6.39</ele>
        <time>2021-07-01T19:35:30Z</time>
      </trkpt>
      <trkpt lat="44.66022" lon="-1.1682">
        <ele>6.87</ele>
        <time>2021-07-01T19:35:43Z</time>
      </trkpt>
      <trkpt lat="44.66028" lon="-1.16822">
        <ele>6.87</ele>
        <time>2021-07-01T19:35:44Z</time>
      </trkpt>
      <trkpt lat="44.66032" lon="-1.16824">
        <ele>6.87</ele>
        <time>2021-07-01T19:35:45Z</time>
      </trkpt>
      <trkpt lat="44.66034" lon="-1.16827">
        <ele>6.87</ele>
        <time>2021-07-01T19:35:46Z</time>
      </trkpt>
      <trkpt lat="44.66036" lon="-1.16831">
        <ele>7.35</ele>
        <time>2021-07-01T19:35:47Z</time>
      </trkpt>
      <trkpt lat="44.66036" lon="-1.16836">
        <ele>7.35</ele>
        <time>2021-07-01T19:35:48Z</time>
      </trkpt>
      <trkpt lat="44.66035" lon="-1.16839">
        <ele>6.87</ele>
        <time>2021-07-01T19:35:49Z</time>
      </trkpt>
      <trkpt lat="44.66034" lon="-1.16843">
        <ele>6.87</ele>
        <time>2021-07-01T19:35:50Z</time>
      </trkpt>
      <trkpt lat="44.66034" lon="-1.16846">
        <ele>6.39</ele>
        <time>2021-07-01T19:35:51Z</time>
      </trkpt>
      <trkpt lat="44.66023" lon="-1.16884">
        <ele>1.58</ele>
        <time>2021-07-01T19:36:00Z</time>
      </trkpt>
      <trkpt lat="44.66029" lon="-1.16985">
        <ele>0.14</ele>
        <time>2021-07-01T19:36:16Z</time>
      </trkpt>
      <trkpt lat="44.66035" lon="-1.17032">
        <ele>3.02</ele>
        <time>2021-07-01T19:36:27Z</time>
      </trkpt>
      <trkpt lat="44.66031" lon="-1.17033">
        <ele>2.54</ele>
        <time>2021-07-01T19:36:28Z</time>
      </trkpt>
      <trkpt lat="44.66029" lon="-1.17033">
        <ele>2.54</ele>
        <time>2021-07-01T19:36:29Z</time>
      </trkpt>
      <trkpt lat="44.66026" lon="-1.17033">
        <ele>2.06</ele>
        <time>2021-07-01T19:36:30Z</time>
      </trkpt>
      <trkpt lat="44.66023" lon="-1.17033">
        <ele>1.58</ele>
        <time>2021-07-01T19:36:31Z</time>
      </trkpt>
      <trkpt lat="44.65963" lon="-1.17039">
        <ele>0.14</ele>
        <time>2021-07-01T19:36:43Z</time>
      </trkpt>
      <trkpt lat="44.65942" lon="-1.17043">
        <ele>-0.34</ele>
        <time>2021-07-01T19:36:52Z</time>
      </trkpt>
      <trkpt lat="44.65938" lon="-1.17044">
        <ele>0.62</ele>
        <time>2021-07-01T19:36:56Z</time>
      </trkpt>
      <trkpt lat="44.65934" lon="-1.17043">
        <ele>0.14</ele>
        <time>2021-07-01T19:36:57Z</time>
      </trkpt>
      <trkpt lat="44.65934" lon="-1.17043">
        <ele>0.14</ele>
        <time>2021-07-01T19:36:58Z</time>
      </trkpt>
      <trkpt lat="44.65933" lon="-1.17035">
        <ele>1.1</ele>
        <time>2021-07-01T19:36:59Z</time>
      </trkpt>
      <trkpt lat="44.65932" lon="-1.1703">
        <ele>1.1</ele>
        <time>2021-07-01T19:37:00Z</time>
      </trkpt>
      <trkpt lat="44.65932" lon="-1.1703">
        <ele>1.1</ele>
        <time>2021-07-01T19:37:01Z</time>
      </trkpt>
      <trkpt lat="44.65919" lon="-1.16958">
        <ele>3.5</ele>
        <time>2021-07-01T19:37:14Z</time>
      </trkpt>
      <trkpt lat="44.65901" lon="-1.16924">
        <ele>5.42</ele>
        <time>2021-07-01T19:37:22Z</time>
      </trkpt>
      <trkpt lat="44.65851" lon="-1.16841">
        <ele>6.39</ele>
        <time>2021-07-01T19:37:35Z</time>
      </trkpt>
      <trkpt lat="44.65836" lon="-1.16815">
        <ele>6.39</ele>
        <time>2021-07-01T19:37:43Z</time>
      </trkpt>
      <trkpt lat="44.65816" lon="-1.16769">
        <ele>3.98</ele>
        <time>2021-07-01T19:37:51Z</time>
      </trkpt>
      <trkpt lat="44.65814" lon="-1.16763">
        <ele>3.5</ele>
        <time>2021-07-01T19:37:52Z</time>
      </trkpt>
      <trkpt lat="44.65811" lon="-1.16757">
        <ele>3.02</ele>
        <time>2021-07-01T19:37:53Z</time>
      </trkpt>
      <trkpt lat="44.65789" lon="-1.16643">
        <ele>-1.3</ele>
        <time>2021-07-01T19:38:06Z</time>
      </trkpt>
      <trkpt lat="44.65781" lon="-1.16627">
        <ele>-2.27</ele>
        <time>2021-07-01T19:38:09Z</time>
      </trkpt>
      <trkpt lat="44.65777" lon="-1.1662">
        <ele>-2.75</ele>
        <time>2021-07-01T19:38:10Z</time>
      </trkpt>
      <trkpt lat="44.65772" lon="-1.16615">
        <ele>-3.23</ele>
        <time>2021-07-01T19:38:11Z</time>
      </trkpt>
      <trkpt lat="44.657" lon="-1.16526">
        <ele>-2.75</ele>
        <time>2021-07-01T19:38:25Z</time>
      </trkpt>
      <trkpt lat="44.65672" lon="-1.16446">
        <ele>3.5</ele>
        <time>2021-07-01T19:38:34Z</time>
      </trkpt>
      <trkpt lat="44.65668" lon="-1.16435">
        <ele>3.5</ele>
        <time>2021-07-01T19:38:35Z</time>
      </trkpt>
      <trkpt lat="44.65668" lon="-1.16434">
        <ele>3.5</ele>
        <time>2021-07-01T19:38:36Z</time>
      </trkpt>
      <trkpt lat="44.65659" lon="-1.16433">
        <ele>4.94</ele>
        <time>2021-07-01T19:38:44Z</time>
      </trkpt>
      <trkpt lat="44.65657" lon="-1.16429">
        <ele>4.94</ele>
        <time>2021-07-01T19:38:45Z</time>
      </trkpt>
      <trkpt lat="44.65655" lon="-1.16423">
        <ele>4.46</ele>
        <time>2021-07-01T19:38:46Z</time>
      </trkpt>
      <trkpt lat="44.65642" lon="-1.16373">
        <ele>3.98</ele>
        <time>2021-07-01T19:38:52Z</time>
      </trkpt>
      <trkpt lat="44.65624" lon="-1.16271">
        <ele>3.02</ele>
        <time>2021-07-01T19:39:04Z</time>
      </trkpt>
      <trkpt lat="44.65622" lon="-1.16175">
        <ele>2.06</ele>
        <time>2021-07-01T19:39:14Z</time>
      </trkpt>
      <trkpt lat="44.65625" lon="-1.16157">
        <ele>1.58</ele>
        <time>2021-07-01T19:39:15Z</time>
      </trkpt>
      <trkpt lat="44.65645" lon="-1.16087">
        <ele>3.5</ele>
        <time>2021-07-01T19:39:27Z</time>
      </trkpt>
      <trkpt lat="44.65663" lon="-1.16031">
        <ele>4.94</ele>
        <time>2021-07-01T19:39:36Z</time>
      </trkpt>
      <trkpt lat="44.65665" lon="-1.16028">
        <ele>4.94</ele>
        <time>2021-07-01T19:39:37Z</time>
      </trkpt>
      <trkpt lat="44.65661" lon="-1.16022">
        <ele>4.46</ele>
        <time>2021-07-01T19:39:38Z</time>
      </trkpt>
      <trkpt lat="44.65659" lon="-1.1602">
        <ele>4.46</ele>
        <time>2021-07-01T19:39:39Z</time>
      </trkpt>
      <trkpt lat="44.65655" lon="-1.16017">
        <ele>3.98</ele>
        <time>2021-07-01T19:39:40Z</time>
      </trkpt>
      <trkpt lat="44.65652" lon="-1.16014">
        <ele>3.98</ele>
        <time>2021-07-01T19:39:41Z</time>
      </trkpt>
      <trkpt lat="44.65642" lon="-1.16005">
        <ele>3.5</ele>
        <time>2021-07-01T19:39:42Z</time>
      </trkpt>
      <trkpt lat="44.6556" lon="-1.15932">
        <ele>5.42</ele>
        <time>2021-07-01T19:39:54Z</time>
      </trkpt>
      <trkpt lat="44.65457" lon="-1.15861">
        <ele>4.94</ele>
        <time>2021-07-01T19:40:05Z</time>
      </trkpt>
      <trkpt lat="44.6545" lon="-1.15858">
        <ele>5.91</ele>
        <time>2021-07-01T19:40:06Z</time>
      </trkpt>
      <trkpt lat="44.65443" lon="-1.15857">
        <ele>5.91</ele>
        <time>2021-07-01T19:40:07Z</time>
      </trkpt>
      <trkpt lat="44.65437" lon="-1.15857">
        <ele>4.94</ele>
        <time>2021-07-01T19:40:08Z</time>
      </trkpt>
      <trkpt lat="44.65433" lon="-1.15859">
        <ele>4.94</ele>
        <time>2021-07-01T19:40:09Z</time>
      </trkpt>
      <trkpt lat="44.65427" lon="-1.15863">
        <ele>4.94</ele>
        <time>2021-07-01T19:40:10Z</time>
      </trkpt>
      <trkpt lat="44.65399" lon="-1.15887">
        <ele>4.94</ele>
        <time>2021-07-01T19:40:15Z</time>
      </trkpt>
      <trkpt lat="44.65395" lon="-1.15891">
        <ele>4.94</ele>
        <time>2021-07-01T19:40:16Z</time>
      </trkpt>
      <trkpt lat="44.65391" lon="-1.15896">
        <ele>4.94</ele>
        <time>2021-07-01T19:40:17Z</time>
      </trkpt>
      <trkpt lat="44.65387" lon="-1.15901">
        <ele>4.94</ele>
        <time>2021-07-01T19:40:18Z</time>
      </trkpt>
      <trkpt lat="44.65384" lon="-1.15906">
        <ele>4.94</ele>
        <time>2021-07-01T19:40:19Z</time>
      </trkpt>
      <trkpt lat="44.65385" lon="-1.15919">
        <ele>4.94</ele>
        <time>2021-07-01T19:40:20Z</time>
      </trkpt>
      <trkpt lat="44.65386" lon="-1.15924">
        <ele>4.46</ele>
        <time>2021-07-01T19:40:21Z</time>
      </trkpt>
      <trkpt lat="44.65384" lon="-1.15932">
        <ele>3.98</ele>
        <time>2021-07-01T19:40:22Z</time>
      </trkpt>
      <trkpt lat="44.65381" lon="-1.15937">
        <ele>3.98</ele>
        <time>2021-07-01T19:40:23Z</time>
      </trkpt>
      <trkpt lat="44.65378" lon="-1.15942">
        <ele>3.98</ele>
        <time>2021-07-01T19:40:24Z</time>
      </trkpt>
      <trkpt lat="44.65373" lon="-1.15943">
        <ele>4.46</ele>
        <time>2021-07-01T19:40:25Z</time>
      </trkpt>
      <trkpt lat="44.65368" lon="-1.15944">
        <ele>4.46</ele>
        <time>2021-07-01T19:40:26Z</time>
      </trkpt>
      <trkpt lat="44.65363" lon="-1.15942">
        <ele>4.46</ele>
        <time>2021-07-01T19:40:27Z</time>
      </trkpt>
      <trkpt lat="44.65359" lon="-1.15936">
        <ele>4.46</ele>
        <time>2021-07-01T19:40:28Z</time>
      </trkpt>
      <trkpt lat="44.65355" lon="-1.1593">
        <ele>4.46</ele>
        <time>2021-07-01T19:40:29Z</time>
      </trkpt>
      <trkpt lat="44.65355" lon="-1.15929">
        <ele>3.98</ele>
        <time>2021-07-01T19:40:30Z</time>
      </trkpt>
      <trkpt lat="44.65349" lon="-1.15914">
        <ele>3.98</ele>
        <time>2021-07-01T19:40:31Z</time>
      </trkpt>
      <trkpt lat="44.65337" lon="-1.15905">
        <ele>3.98</ele>
        <time>2021-07-01T19:40:32Z</time>
      </trkpt>
      <trkpt lat="44.65337" lon="-1.15905">
        <ele>3.98</ele>
        <time>2021-07-01T19:40:33Z</time>
      </trkpt>
      <trkpt lat="44.65329" lon="-1.159">
        <ele>3.5</ele>
        <time>2021-07-01T19:40:34Z</time>
      </trkpt>
      <trkpt lat="44.65319" lon="-1.15895">
        <ele>3.02</ele>
        <time>2021-07-01T19:40:35Z</time>
      </trkpt>
      <trkpt lat="44.65202" lon="-1.1584">
        <ele>-0.82</ele>
        <time>2021-07-01T19:40:44Z</time>
      </trkpt>
      <trkpt lat="44.65063" lon="-1.15799">
        <ele>-9</ele>
        <time>2021-07-01T19:40:54Z</time>
      </trkpt>
      <trkpt lat="44.64897" lon="-1.15799">
        <ele>-6.11</ele>
        <time>2021-07-01T19:41:05Z</time>
      </trkpt>
      <trkpt lat="44.64789" lon="-1.15813">
        <ele>-8.51</ele>
        <time>2021-07-01T19:41:16Z</time>
      </trkpt>
      <trkpt lat="44.64723" lon="-1.15819">
        <ele>-9.96</ele>
        <time>2021-07-01T19:41:24Z</time>
      </trkpt>
      <trkpt lat="44.64718" lon="-1.1582">
        <ele>-9.48</ele>
        <time>2021-07-01T19:41:25Z</time>
      </trkpt>
      <trkpt lat="44.64713" lon="-1.1582">
        <ele>-9.96</ele>
        <time>2021-07-01T19:41:26Z</time>
      </trkpt>
      <trkpt lat="44.64703" lon="-1.15837">
        <ele>-9.96</ele>
        <time>2021-07-01T19:41:28Z</time>
      </trkpt>
      <trkpt lat="44.64698" lon="-1.15842">
        <ele>-9.48</ele>
        <time>2021-07-01T19:41:29Z</time>
      </trkpt>
      <trkpt lat="44.64692" lon="-1.15846">
        <ele>-8.51</ele>
        <time>2021-07-01T19:41:30Z</time>
      </trkpt>
      <trkpt lat="44.64682" lon="-1.15848">
        <ele>-7.55</ele>
        <time>2021-07-01T19:41:31Z</time>
      </trkpt>
      <trkpt lat="44.64675" lon="-1.15845">
        <ele>-7.07</ele>
        <time>2021-07-01T19:41:32Z</time>
      </trkpt>
      <trkpt lat="44.64667" lon="-1.15838">
        <ele>-7.07</ele>
        <time>2021-07-01T19:41:33Z</time>
      </trkpt>
      <trkpt lat="44.6466" lon="-1.15833">
        <ele>-6.11</ele>
        <time>2021-07-01T19:41:34Z</time>
      </trkpt>
      <trkpt lat="44.64564" lon="-1.15822">
        <ele>-4.67</ele>
        <time>2021-07-01T19:41:41Z</time>
      </trkpt>
      <trkpt lat="44.64373" lon="-1.15779">
        <ele>-2.75</ele>
        <time>2021-07-01T19:41:51Z</time>
      </trkpt>
      <trkpt lat="44.64043" lon="-1.15651">
        <ele>-1.79</ele>
        <time>2021-07-01T19:42:07Z</time>
      </trkpt>
      <trkpt lat="44.63739" lon="-1.15567">
        <ele>-2.27</ele>
        <time>2021-07-01T19:42:22Z</time>
      </trkpt>
      <trkpt lat="44.63449" lon="-1.15552">
        <ele>-1.79</ele>
        <time>2021-07-01T19:42:35Z</time>
      </trkpt>
      <trkpt lat="44.63268" lon="-1.15589">
        <ele>-0.82</ele>
        <time>2021-07-01T19:42:44Z</time>
      </trkpt>
      <trkpt lat="44.63101" lon="-1.15635">
        <ele>-0.34</ele>
        <time>2021-07-01T19:42:55Z</time>
      </trkpt>
      <trkpt lat="44.63044" lon="-1.15649">
        <ele>1.1</ele>
        <time>2021-07-01T19:43:01Z</time>
      </trkpt>
      <trkpt lat="44.63029" lon="-1.15669">
        <ele>2.54</ele>
        <time>2021-07-01T19:43:08Z</time>
      </trkpt>
      <trkpt lat="44.63028" lon="-1.15673">
        <ele>2.54</ele>
        <time>2021-07-01T19:43:09Z</time>
      </trkpt>
      <trkpt lat="44.63027" lon="-1.1568">
        <ele>2.06</ele>
        <time>2021-07-01T19:43:10Z</time>
      </trkpt>
      <trkpt lat="44.63026" lon="-1.15685">
        <ele>2.06</ele>
        <time>2021-07-01T19:43:11Z</time>
      </trkpt>
      <trkpt lat="44.6301" lon="-1.15707">
        <ele>1.1</ele>
        <time>2021-07-01T19:43:12Z</time>
      </trkpt>
      <trkpt lat="44.6301" lon="-1.15707">
        <ele>1.1</ele>
        <time>2021-07-01T19:43:13Z</time>
      </trkpt>
      <trkpt lat="44.6301" lon="-1.15718">
        <ele>1.1</ele>
        <time>2021-07-01T19:43:14Z</time>
      </trkpt>
      <trkpt lat="44.63025" lon="-1.15741">
        <ele>0.14</ele>
        <time>2021-07-01T19:43:15Z</time>
      </trkpt>
      <trkpt lat="44.63033" lon="-1.15746">
        <ele>-0.34</ele>
        <time>2021-07-01T19:43:16Z</time>
      </trkpt>
      <trkpt lat="44.63041" lon="-1.15752">
        <ele>0.14</ele>
        <time>2021-07-01T19:43:17Z</time>
      </trkpt>
      <trkpt lat="44.63051" lon="-1.15758">
        <ele>-0.34</ele>
        <time>2021-07-01T19:43:18Z</time>
      </trkpt>
      <trkpt lat="44.63062" lon="-1.15765">
        <ele>-1.79</ele>
        <time>2021-07-01T19:43:19Z</time>
      </trkpt>
      <trkpt lat="44.63074" lon="-1.15773">
        <ele>-2.75</ele>
        <time>2021-07-01T19:43:20Z</time>
      </trkpt>
      <trkpt lat="44.63203" lon="-1.15889">
        <ele>-4.19</ele>
        <time>2021-07-01T19:43:31Z</time>
      </trkpt>
      <trkpt lat="44.63259" lon="-1.16005">
        <ele>-2.75</ele>
        <time>2021-07-01T19:43:38Z</time>
      </trkpt>
      <trkpt lat="44.63259" lon="-1.16005">
        <ele>-2.75</ele>
        <time>2021-07-01T19:43:39Z</time>
      </trkpt>
      <trkpt lat="44.63263" lon="-1.1602">
        <ele>-2.27</ele>
        <time>2021-07-01T19:43:40Z</time>
      </trkpt>
      <trkpt lat="44.63272" lon="-1.1606">
        <ele>-2.27</ele>
        <time>2021-07-01T19:43:43Z</time>
      </trkpt>
      <trkpt lat="44.63276" lon="-1.16067">
        <ele>-2.27</ele>
        <time>2021-07-01T19:43:44Z</time>
      </trkpt>
      <trkpt lat="44.63281" lon="-1.16074">
        <ele>-2.27</ele>
        <time>2021-07-01T19:43:45Z</time>
      </trkpt>
      <trkpt lat="44.63285" lon="-1.16081">
        <ele>-2.27</ele>
        <time>2021-07-01T19:43:46Z</time>
      </trkpt>
      <trkpt lat="44.63289" lon="-1.16086">
        <ele>-2.75</ele>
        <time>2021-07-01T19:43:47Z</time>
      </trkpt>
      <trkpt lat="44.63293" lon="-1.16089">
        <ele>-2.75</ele>
        <time>2021-07-01T19:43:48Z</time>
      </trkpt>
      <trkpt lat="44.63297" lon="-1.16091">
        <ele>-2.75</ele>
        <time>2021-07-01T19:43:49Z</time>
      </trkpt>
      <trkpt lat="44.63301" lon="-1.16093">
        <ele>-2.75</ele>
        <time>2021-07-01T19:43:50Z</time>
      </trkpt>
      <trkpt lat="44.63305" lon="-1.16094">
        <ele>-2.75</ele>
        <time>2021-07-01T19:43:51Z</time>
      </trkpt>
      <trkpt lat="44.63315" lon="-1.16083">
        <ele>-2.75</ele>
        <time>2021-07-01T19:43:52Z</time>
      </trkpt>
      <trkpt lat="44.63314" lon="-1.16078">
        <ele>-2.27</ele>
        <time>2021-07-01T19:43:53Z</time>
      </trkpt>
      <trkpt lat="44.63316" lon="-1.16069">
        <ele>-2.27</ele>
        <time>2021-07-01T19:43:54Z</time>
      </trkpt>
      <trkpt lat="44.6332" lon="-1.16062">
        <ele>-1.79</ele>
        <time>2021-07-01T19:43:55Z</time>
      </trkpt>
      <trkpt lat="44.63334" lon="-1.16053">
        <ele>-1.79</ele>
        <time>2021-07-01T19:43:56Z</time>
      </trkpt>
      <trkpt lat="44.6334" lon="-1.16052">
        <ele>-1.79</ele>
        <time>2021-07-01T19:43:57Z</time>
      </trkpt>
      <trkpt lat="44.6334" lon="-1.16052">
        <ele>-1.79</ele>
        <time>2021-07-01T19:43:58Z</time>
      </trkpt>
      <trkpt lat="44.63348" lon="-1.16055">
        <ele>-1.79</ele>
        <time>2021-07-01T19:43:59Z</time>
      </trkpt>
      <trkpt lat="44.63357" lon="-1.16065">
        <ele>-1.79</ele>
        <time>2021-07-01T19:44:00Z</time>
      </trkpt>
      <trkpt lat="44.63359" lon="-1.16076">
        <ele>-1.79</ele>
        <time>2021-07-01T19:44:01Z</time>
      </trkpt>
      <trkpt lat="44.63359" lon="-1.16086">
        <ele>-2.27</ele>
        <time>2021-07-01T19:44:02Z</time>
      </trkpt>
      <trkpt lat="44.63359" lon="-1.1609">
        <ele>-2.27</ele>
        <time>2021-07-01T19:44:03Z</time>
      </trkpt>
      <trkpt lat="44.63341" lon="-1.1624">
        <ele>-2.27</ele>
        <time>2021-07-01T19:44:13Z</time>
      </trkpt>
      <trkpt lat="44.63336" lon="-1.16386">
        <ele>2.54</ele>
        <time>2021-07-01T19:44:22Z</time>
      </trkpt>
      <trkpt lat="44.63353" lon="-1.16578">
        <ele>4.46</ele>
        <time>2021-07-01T19:44:33Z</time>
      </trkpt>
      <trkpt lat="44.63377" lon="-1.16778">
        <ele>3.98</ele>
        <time>2021-07-01T19:44:46Z</time>
      </trkpt>
      <trkpt lat="44.6338" lon="-1.16802">
        <ele>4.94</ele>
        <time>2021-07-01T19:44:49Z</time>
      </trkpt>
      <trkpt lat="44.6338" lon="-1.16805">
        <ele>4.94</ele>
        <time>2021-07-01T19:44:50Z</time>
      </trkpt>
      <trkpt lat="44.63385" lon="-1.16808">
        <ele>4.94</ele>
        <time>2021-07-01T19:44:51Z</time>
      </trkpt>
      <trkpt lat="44.63389" lon="-1.1681">
        <ele>4.94</ele>
        <time>2021-07-01T19:44:52Z</time>
      </trkpt>
      <trkpt lat="44.63396" lon="-1.16815">
        <ele>4.94</ele>
        <time>2021-07-01T19:44:53Z</time>
      </trkpt>
      <trkpt lat="44.63399" lon="-1.16821">
        <ele>5.42</ele>
        <time>2021-07-01T19:44:54Z</time>
      </trkpt>
      <trkpt lat="44.63401" lon="-1.16827">
        <ele>5.91</ele>
        <time>2021-07-01T19:44:55Z</time>
      </trkpt>
      <trkpt lat="44.63401" lon="-1.16838">
        <ele>6.39</ele>
        <time>2021-07-01T19:44:56Z</time>
      </trkpt>
      <trkpt lat="44.634" lon="-1.16844">
        <ele>6.87</ele>
        <time>2021-07-01T19:44:57Z</time>
      </trkpt>
      <trkpt lat="44.63395" lon="-1.1685">
        <ele>6.87</ele>
        <time>2021-07-01T19:44:58Z</time>
      </trkpt>
      <trkpt lat="44.63391" lon="-1.16854">
        <ele>7.35</ele>
        <time>2021-07-01T19:44:59Z</time>
      </trkpt>
      <trkpt lat="44.63391" lon="-1.16854">
        <ele>7.35</ele>
        <time>2021-07-01T19:45:00Z</time>
      </trkpt>
      <trkpt lat="44.63377" lon="-1.16874">
        <ele>7.83</ele>
        <time>2021-07-01T19:45:01Z</time>
      </trkpt>
      <trkpt lat="44.63376" lon="-1.16886">
        <ele>7.83</ele>
        <time>2021-07-01T19:45:02Z</time>
      </trkpt>
      <trkpt lat="44.63374" lon="-1.16911">
        <ele>8.31</ele>
        <time>2021-07-01T19:45:03Z</time>
      </trkpt>
      <trkpt lat="44.63361" lon="-1.17077">
        <ele>7.83</ele>
        <time>2021-07-01T19:45:14Z</time>
      </trkpt>
      <trkpt lat="44.63344" lon="-1.1732">
        <ele>12.63</ele>
        <time>2021-07-01T19:45:26Z</time>
      </trkpt>
      <trkpt lat="44.63346" lon="-1.17636">
        <ele>22.25</ele>
        <time>2021-07-01T19:45:40Z</time>
      </trkpt>
      <trkpt lat="44.63348" lon="-1.17938">
        <ele>23.69</ele>
        <time>2021-07-01T19:45:54Z</time>
      </trkpt>
      <trkpt lat="44.6335" lon="-1.18141">
        <ele>29.94</ele>
        <time>2021-07-01T19:46:05Z</time>
      </trkpt>
      <trkpt lat="44.63344" lon="-1.18322">
        <ele>25.61</ele>
        <time>2021-07-01T19:46:16Z</time>
      </trkpt>
      <trkpt lat="44.63291" lon="-1.18472">
        <ele>19.36</ele>
        <time>2021-07-01T19:46:25Z</time>
      </trkpt>
      <trkpt lat="44.63199" lon="-1.18626">
        <ele>14.56</ele>
        <time>2021-07-01T19:46:36Z</time>
      </trkpt>
      <trkpt lat="44.63194" lon="-1.18642">
        <ele>15.04</ele>
        <time>2021-07-01T19:46:37Z</time>
      </trkpt>
      <trkpt lat="44.6319" lon="-1.18672">
        <ele>15.52</ele>
        <time>2021-07-01T19:46:38Z</time>
      </trkpt>
      <trkpt lat="44.6319" lon="-1.18672">
        <ele>16.48</ele>
        <time>2021-07-01T19:46:39Z</time>
      </trkpt>
      <trkpt lat="44.63191" lon="-1.1869">
        <ele>16.96</ele>
        <time>2021-07-01T19:46:40Z</time>
      </trkpt>
      <trkpt lat="44.63192" lon="-1.18705">
        <ele>17.44</ele>
        <time>2021-07-01T19:46:41Z</time>
      </trkpt>
      <trkpt lat="44.63197" lon="-1.18721">
        <ele>18.4</ele>
        <time>2021-07-01T19:46:42Z</time>
      </trkpt>
      <trkpt lat="44.63211" lon="-1.18746">
        <ele>19.36</ele>
        <time>2021-07-01T19:46:43Z</time>
      </trkpt>
      <trkpt lat="44.63211" lon="-1.18746">
        <ele>20.81</ele>
        <time>2021-07-01T19:46:44Z</time>
      </trkpt>
      <trkpt lat="44.6322" lon="-1.18757">
        <ele>21.77</ele>
        <time>2021-07-01T19:46:45Z</time>
      </trkpt>
      <trkpt lat="44.6323" lon="-1.18766">
        <ele>22.73</ele>
        <time>2021-07-01T19:46:46Z</time>
      </trkpt>
      <trkpt lat="44.63241" lon="-1.18772">
        <ele>23.69</ele>
        <time>2021-07-01T19:46:47Z</time>
      </trkpt>
      <trkpt lat="44.63252" lon="-1.18776">
        <ele>24.65</ele>
        <time>2021-07-01T19:46:48Z</time>
      </trkpt>
      <trkpt lat="44.63264" lon="-1.18778">
        <ele>25.13</ele>
        <time>2021-07-01T19:46:49Z</time>
      </trkpt>
      <trkpt lat="44.63337" lon="-1.1879">
        <ele>26.09</ele>
        <time>2021-07-01T19:46:55Z</time>
      </trkpt>
      <trkpt lat="44.63348" lon="-1.18792">
        <ele>26.57</ele>
        <time>2021-07-01T19:46:56Z</time>
      </trkpt>
      <trkpt lat="44.63369" lon="-1.18807">
        <ele>28.02</ele>
        <time>2021-07-01T19:46:57Z</time>
      </trkpt>
      <trkpt lat="44.63369" lon="-1.18807">
        <ele>28.5</ele>
        <time>2021-07-01T19:46:58Z</time>
      </trkpt>
      <trkpt lat="44.63376" lon="-1.18819">
        <ele>28.98</ele>
        <time>2021-07-01T19:46:59Z</time>
      </trkpt>
      <trkpt lat="44.63383" lon="-1.18835">
        <ele>29.46</ele>
        <time>2021-07-01T19:47:00Z</time>
      </trkpt>
      <trkpt lat="44.63387" lon="-1.18847">
        <ele>30.42</ele>
        <time>2021-07-01T19:47:01Z</time>
      </trkpt>
      <trkpt lat="44.63387" lon="-1.18865">
        <ele>30.42</ele>
        <time>2021-07-01T19:47:02Z</time>
      </trkpt>
      <trkpt lat="44.63382" lon="-1.18896">
        <ele>30.42</ele>
        <time>2021-07-01T19:47:03Z</time>
      </trkpt>
      <trkpt lat="44.63382" lon="-1.18896">
        <ele>30.9</ele>
        <time>2021-07-01T19:47:04Z</time>
      </trkpt>
      <trkpt lat="44.63367" lon="-1.18919">
        <ele>30.9</ele>
        <time>2021-07-01T19:47:05Z</time>
      </trkpt>
      <trkpt lat="44.63367" lon="-1.18919">
        <ele>31.38</ele>
        <time>2021-07-01T19:47:06Z</time>
      </trkpt>
      <trkpt lat="44.6336" lon="-1.18928">
        <ele>31.86</ele>
        <time>2021-07-01T19:47:07Z</time>
      </trkpt>
      <trkpt lat="44.63348" lon="-1.18935">
        <ele>32.34</ele>
        <time>2021-07-01T19:47:08Z</time>
      </trkpt>
      <trkpt lat="44.63334" lon="-1.18943">
        <ele>32.82</ele>
        <time>2021-07-01T19:47:09Z</time>
      </trkpt>
      <trkpt lat="44.63274" lon="-1.1898">
        <ele>35.23</ele>
        <time>2021-07-01T19:47:14Z</time>
      </trkpt>
      <trkpt lat="44.63265" lon="-1.18993">
        <ele>35.71</ele>
        <time>2021-07-01T19:47:15Z</time>
      </trkpt>
      <trkpt lat="44.63257" lon="-1.19006">
        <ele>36.67</ele>
        <time>2021-07-01T19:47:16Z</time>
      </trkpt>
      <trkpt lat="44.63252" lon="-1.19022">
        <ele>36.67</ele>
        <time>2021-07-01T19:47:17Z</time>
      </trkpt>
      <trkpt lat="44.63247" lon="-1.1904">
        <ele>37.63</ele>
        <time>2021-07-01T19:47:18Z</time>
      </trkpt>
      <trkpt lat="44.63246" lon="-1.19055">
        <ele>38.59</ele>
        <time>2021-07-01T19:47:19Z</time>
      </trkpt>
      <trkpt lat="44.63248" lon="-1.19073">
        <ele>38.59</ele>
        <time>2021-07-01T19:47:20Z</time>
      </trkpt>
      <trkpt lat="44.6325" lon="-1.1909">
        <ele>39.07</ele>
        <time>2021-07-01T19:47:21Z</time>
      </trkpt>
      <trkpt lat="44.63255" lon="-1.19106">
        <ele>39.07</ele>
        <time>2021-07-01T19:47:22Z</time>
      </trkpt>
      <trkpt lat="44.63266" lon="-1.19133">
        <ele>38.59</ele>
        <time>2021-07-01T19:47:23Z</time>
      </trkpt>
      <trkpt lat="44.63272" lon="-1.19146">
        <ele>38.11</ele>
        <time>2021-07-01T19:47:24Z</time>
      </trkpt>
      <trkpt lat="44.63272" lon="-1.19146">
        <ele>37.63</ele>
        <time>2021-07-01T19:47:25Z</time>
      </trkpt>
      <trkpt lat="44.63276" lon="-1.1916">
        <ele>37.63</ele>
        <time>2021-07-01T19:47:26Z</time>
      </trkpt>
      <trkpt lat="44.6328" lon="-1.19174">
        <ele>37.63</ele>
        <time>2021-07-01T19:47:27Z</time>
      </trkpt>
      <trkpt lat="44.63283" lon="-1.19188">
        <ele>38.11</ele>
        <time>2021-07-01T19:47:28Z</time>
      </trkpt>
      <trkpt lat="44.63286" lon="-1.19204">
        <ele>37.63</ele>
        <time>2021-07-01T19:47:29Z</time>
      </trkpt>
      <trkpt lat="44.63285" lon="-1.1922">
        <ele>37.15</ele>
        <time>2021-07-01T19:47:30Z</time>
      </trkpt>
      <trkpt lat="44.63284" lon="-1.19237">
        <ele>36.19</ele>
        <time>2021-07-01T19:47:31Z</time>
      </trkpt>
      <trkpt lat="44.63281" lon="-1.19252">
        <ele>34.74</ele>
        <time>2021-07-01T19:47:32Z</time>
      </trkpt>
      <trkpt lat="44.63272" lon="-1.19281">
        <ele>33.3</ele>
        <time>2021-07-01T19:47:33Z</time>
      </trkpt>
      <trkpt lat="44.63212" lon="-1.19457">
        <ele>24.17</ele>
        <time>2021-07-01T19:47:46Z</time>
      </trkpt>
      <trkpt lat="44.63133" lon="-1.19657">
        <ele>14.56</ele>
        <time>2021-07-01T19:48:00Z</time>
      </trkpt>
      <trkpt lat="44.63113" lon="-1.19707">
        <ele>13.12</ele>
        <time>2021-07-01T19:48:04Z</time>
      </trkpt>
      <trkpt lat="44.6311" lon="-1.19737">
        <ele>13.12</ele>
        <time>2021-07-01T19:48:05Z</time>
      </trkpt>
      <trkpt lat="44.6311" lon="-1.19737">
        <ele>12.15</ele>
        <time>2021-07-01T19:48:06Z</time>
      </trkpt>
      <trkpt lat="44.63094" lon="-1.19916">
        <ele>7.83</ele>
        <time>2021-07-01T19:48:18Z</time>
      </trkpt>
      <trkpt lat="44.63092" lon="-1.19941">
        <ele>6.39</ele>
        <time>2021-07-01T19:48:21Z</time>
      </trkpt>
      <trkpt lat="44.6309" lon="-1.19989">
        <ele>4.46</ele>
        <time>2021-07-01T19:48:28Z</time>
      </trkpt>
      <trkpt lat="44.63082" lon="-1.20102">
        <ele>-0.34</ele>
        <time>2021-07-01T19:48:42Z</time>
      </trkpt>
      <trkpt lat="44.63076" lon="-1.20186">
        <ele>-1.3</ele>
        <time>2021-07-01T19:48:53Z</time>
      </trkpt>
      <trkpt lat="44.63072" lon="-1.2022">
        <ele>1.58</ele>
        <time>2021-07-01T19:49:04Z</time>
      </trkpt>
      <trkpt lat="44.63069" lon="-1.20263">
        <ele>-0.34</ele>
        <time>2021-07-01T19:49:13Z</time>
      </trkpt>
      <trkpt lat="44.63065" lon="-1.20268">
        <ele>-0.82</ele>
        <time>2021-07-01T19:49:14Z</time>
      </trkpt>
      <trkpt lat="44.63062" lon="-1.20267">
        <ele>-0.82</ele>
        <time>2021-07-01T19:49:15Z</time>
      </trkpt>
      <trkpt lat="44.63058" lon="-1.20267">
        <ele>-1.3</ele>
        <time>2021-07-01T19:49:16Z</time>
      </trkpt>
      <trkpt lat="44.63054" lon="-1.20266">
        <ele>-1.79</ele>
        <time>2021-07-01T19:49:17Z</time>
      </trkpt>
      <trkpt lat="44.63051" lon="-1.20266">
        <ele>-2.27</ele>
        <time>2021-07-01T19:49:18Z</time>
      </trkpt>
      <trkpt lat="44.63048" lon="-1.20266">
        <ele>-2.75</ele>
        <time>2021-07-01T19:49:19Z</time>
      </trkpt>
      <trkpt lat="44.63044" lon="-1.20265">
        <ele>-2.75</ele>
        <time>2021-07-01T19:49:20Z</time>
      </trkpt>
      <trkpt lat="44.6304" lon="-1.20265">
        <ele>-3.23</ele>
        <time>2021-07-01T19:49:21Z</time>
      </trkpt>
      <trkpt lat="44.63036" lon="-1.20265">
        <ele>-3.23</ele>
        <time>2021-07-01T19:49:22Z</time>
      </trkpt>
      <trkpt lat="44.63032" lon="-1.20264">
        <ele>-3.71</ele>
        <time>2021-07-01T19:49:23Z</time>
      </trkpt>
      <trkpt lat="44.62942" lon="-1.20256">
        <ele>-2.27</ele>
        <time>2021-07-01T19:49:38Z</time>
      </trkpt>
      <trkpt lat="44.62857" lon="-1.20249">
        <ele>-0.82</ele>
        <time>2021-07-01T19:49:51Z</time>
      </trkpt>
      <trkpt lat="44.62738" lon="-1.20232">
        <ele>-1.3</ele>
        <time>2021-07-01T19:50:05Z</time>
      </trkpt>
      <trkpt lat="44.62686" lon="-1.20228">
        <ele>-2.27</ele>
        <time>2021-07-01T19:50:14Z</time>
      </trkpt>
      <trkpt lat="44.62604" lon="-1.20217">
        <ele>-4.19</ele>
        <time>2021-07-01T19:50:26Z</time>
      </trkpt>
      <trkpt lat="44.62479" lon="-1.20204">
        <ele>-5.63</ele>
        <time>2021-07-01T19:50:41Z</time>
      </trkpt>
      <trkpt lat="44.62471" lon="-1.20203">
        <ele>-6.11</ele>
        <time>2021-07-01T19:50:42Z</time>
      </trkpt>
      <trkpt lat="44.62457" lon="-1.20201">
        <ele>-7.07</ele>
        <time>2021-07-01T19:50:44Z</time>
      </trkpt>
      <trkpt lat="44.62376" lon="-1.20195">
        <ele>-10.44</ele>
        <time>2021-07-01T19:50:57Z</time>
      </trkpt>
      <trkpt lat="44.62351" lon="-1.20194">
        <ele>-11.88</ele>
        <time>2021-07-01T19:51:07Z</time>
      </trkpt>
    </trkseg>
  </trk>
</gpx>